RYR9NC LIRA-LIEE
Flight info
| Callsign | RYR9NC |
|---|---|
| Flight time | 0h 46m |
| Altitude | 33000 |
| Route | ESINO DCT ABIDU DCT ADRUX Q125 KOVAS |
| Aircraft | B738/M-SDE2E3FGHIRWXY/LB1 |
Departure
| Time | 2026-04-30 20:13 |
|---|---|
| Airport | Ciampino–G. B. Pastine International Airport (LIRA) |
Arrival
| Time | 2026-04-30 21:00 |
|---|---|
| Airport | Cagliari Elmas Airport (LIEE) |
| Time | Latitude | Longitude | Altitude | Speed | Heading |
|---|---|---|---|---|---|
| 2026-04-30 19:31 | 41.80069 | 12.59020 | 405 ft | 0 kts | 123° |
| 2026-04-30 20:04 | 41.80071 | 12.59014 | 378 ft | 4 kts | 126° |
| 2026-04-30 20:04 | 41.80090 | 12.58990 | 414 ft | 4 kts | 130° |
| 2026-04-30 20:05 | 41.80115 | 12.58943 | 401 ft | 0 kts | 119° |
| 2026-04-30 20:08 | 41.80115 | 12.58948 | 401 ft | 2 kts | 99° |
| 2026-04-30 20:08 | 41.80122 | 12.58978 | 403 ft | 5 kts | 62° |
| 2026-04-30 20:08 | 41.80149 | 12.59030 | 405 ft | 7 kts | 53° |
| 2026-04-30 20:08 | 41.80181 | 12.59083 | 405 ft | 7 kts | 41° |
| 2026-04-30 20:09 | 41.80228 | 12.59082 | 404 ft | 7 kts | 334° |
| 2026-04-30 20:09 | 41.80273 | 12.59049 | 406 ft | 8 kts | 333° |
| 2026-04-30 20:09 | 41.80461 | 12.58920 | 406 ft | 19 kts | 333° |
| 2026-04-30 20:10 | 41.80678 | 12.58771 | 404 ft | 11 kts | 333° |
| 2026-04-30 20:10 | 41.80727 | 12.58765 | 407 ft | 7 kts | 30° |
| 2026-04-30 20:10 | 41.80736 | 12.58781 | 404 ft | 0 kts | 60° |
| 2026-04-30 20:11 | 41.80743 | 12.58798 | 409 ft | 6 kts | 61° |
| 2026-04-30 20:12 | 41.80736 | 12.58930 | 415 ft | 8 kts | 149° |
| 2026-04-30 20:12 | 41.80730 | 12.58935 | 416 ft | 0 kts | 150° |
| 2026-04-30 20:12 | 41.80659 | 12.58986 | 408 ft | 45 kts | 152° |
| 2026-04-30 20:13 | 41.80108 | 12.59364 | 411 ft | 130 kts | 153° |
| 2026-04-30 20:13 | 41.79103 | 12.60048 | 658 ft | 181 kts | 153° |
| 2026-04-30 20:13 | 41.77954 | 12.60804 | 1704 ft | 185 kts | 154° |
| 2026-04-30 20:13 | 41.76720 | 12.61376 | 2740 ft | 194 kts | 171° |
| 2026-04-30 20:14 | 41.75435 | 12.61176 | 3794 ft | 185 kts | 201° |
| 2026-04-30 20:14 | 41.74292 | 12.60206 | 4296 ft | 210 kts | 223° |
| 2026-04-30 20:14 | 41.73392 | 12.58561 | 4671 ft | 227 kts | 246° |
| 2026-04-30 20:14 | 41.73040 | 12.56490 | 5281 ft | 232 kts | 272° |
| 2026-04-30 20:15 | 41.73370 | 12.54401 | 6066 ft | 230 kts | 291° |
| 2026-04-30 20:15 | 41.73912 | 12.52398 | 6982 ft | 227 kts | 291° |
| 2026-04-30 20:15 | 41.74429 | 12.50395 | 7798 ft | 229 kts | 290° |
| 2026-04-30 20:15 | 41.74929 | 12.48361 | 8547 ft | 232 kts | 289° |
| 2026-04-30 20:16 | 41.75418 | 12.46296 | 9358 ft | 234 kts | 289° |
| 2026-04-30 20:16 | 41.75903 | 12.44210 | 10148 ft | 236 kts | 289° |
| 2026-04-30 20:16 | 41.76389 | 12.42103 | 10852 ft | 237 kts | 289° |
| 2026-04-30 20:16 | 41.76870 | 12.39985 | 11541 ft | 241 kts | 289° |
| 2026-04-30 20:17 | 41.77362 | 12.37737 | 11822 ft | 264 kts | 289° |
| 2026-04-30 20:17 | 41.77900 | 12.35258 | 12038 ft | 289 kts | 289° |
| 2026-04-30 20:17 | 41.78483 | 12.32567 | 12236 ft | 313 kts | 289° |
| 2026-04-30 20:17 | 41.79103 | 12.29700 | 12441 ft | 335 kts | 288° |
| 2026-04-30 20:18 | 41.79465 | 12.26560 | 12939 ft | 351 kts | 270° |
| 2026-04-30 20:18 | 41.78870 | 12.23311 | 13716 ft | 362 kts | 249° |
| 2026-04-30 20:18 | 41.77445 | 12.20550 | 14420 ft | 374 kts | 227° |
| 2026-04-30 20:18 | 41.75442 | 12.18294 | 15214 ft | 379 kts | 222° |
| 2026-04-30 20:19 | 41.73350 | 12.16128 | 15884 ft | 382 kts | 221° |
| 2026-04-30 20:19 | 41.71919 | 12.14667 | 16327 ft | 384 kts | 222° |
| 2026-04-30 20:19 | 41.69100 | 12.11763 | 17172 ft | 388 kts | 223° |
| 2026-04-30 20:19 | 41.66966 | 12.09536 | 17806 ft | 391 kts | 223° |
| 2026-04-30 20:20 | 41.64817 | 12.07273 | 18428 ft | 395 kts | 223° |
| 2026-04-30 20:20 | 41.62658 | 12.04992 | 18972 ft | 398 kts | 223° |
| 2026-04-30 20:20 | 41.60478 | 12.02690 | 19501 ft | 400 kts | 223° |
| 2026-04-30 20:20 | 41.59028 | 12.01160 | 19859 ft | 402 kts | 223° |
| 2026-04-30 20:21 | 41.56829 | 11.98835 | 20410 ft | 405 kts | 223° |
| 2026-04-30 20:21 | 41.54613 | 11.96490 | 20996 ft | 407 kts | 224° |
| 2026-04-30 20:21 | 41.52393 | 11.94143 | 21570 ft | 408 kts | 224° |
| 2026-04-30 20:21 | 41.50160 | 11.91783 | 22099 ft | 411 kts | 224° |
| 2026-04-30 20:22 | 41.47906 | 11.89403 | 22610 ft | 414 kts | 224° |
| 2026-04-30 20:22 | 41.45637 | 11.87010 | 23121 ft | 417 kts | 224° |
| 2026-04-30 20:22 | 41.43354 | 11.84605 | 23635 ft | 420 kts | 224° |
| 2026-04-30 20:22 | 41.41052 | 11.82183 | 24065 ft | 422 kts | 224° |
| 2026-04-30 20:23 | 41.38913 | 11.79553 | 24462 ft | 415 kts | 238° |
| 2026-04-30 20:23 | 41.37526 | 11.76280 | 25006 ft | 398 kts | 254° |
| 2026-04-30 20:23 | 41.36591 | 11.72863 | 25764 ft | 392 kts | 255° |
| 2026-04-30 20:23 | 41.35678 | 11.69413 | 26032 ft | 398 kts | 255° |
| 2026-04-30 20:24 | 41.34757 | 11.65909 | 26305 ft | 404 kts | 255° |
| 2026-04-30 20:24 | 41.33820 | 11.62367 | 26645 ft | 407 kts | 255° |
| 2026-04-30 20:24 | 41.32880 | 11.58858 | 27078 ft | 408 kts | 255° |
| 2026-04-30 20:24 | 41.31923 | 11.55320 | 27658 ft | 405 kts | 255° |
| 2026-04-30 20:25 | 41.30015 | 11.48331 | 28884 ft | 399 kts | 255° |
| 2026-04-30 20:25 | 41.29066 | 11.44867 | 29398 ft | 398 kts | 255° |
| 2026-04-30 20:26 | 41.27170 | 11.37959 | 30417 ft | 395 kts | 255° |
| 2026-04-30 20:26 | 41.25296 | 11.31154 | 31429 ft | 389 kts | 255° |
| 2026-04-30 20:26 | 41.24369 | 11.27794 | 31870 ft | 387 kts | 255° |
| 2026-04-30 20:27 | 41.22518 | 11.21090 | 32667 ft | 384 kts | 255° |
| 2026-04-30 20:27 | 41.20686 | 11.14473 | 33138 ft | 383 kts | 255° |
| 2026-04-30 20:28 | 41.17056 | 11.01425 | 33156 ft | 375 kts | 255° |
| 2026-04-30 20:30 | 41.12503 | 10.85134 | 33152 ft | 378 kts | 255° |
| 2026-04-30 20:31 | 41.06979 | 10.65524 | 33159 ft | 378 kts | 255° |
| 2026-04-30 20:32 | 41.02385 | 10.49332 | 33150 ft | 372 kts | 255° |
| 2026-04-30 20:33 | 40.99653 | 10.39740 | 33162 ft | 370 kts | 255° |
| 2026-04-30 20:34 | 40.96910 | 10.30184 | 33160 ft | 370 kts | 255° |
| 2026-04-30 20:35 | 40.94164 | 10.20671 | 33168 ft | 371 kts | 255° |
| 2026-04-30 20:35 | 40.91391 | 10.11093 | 33168 ft | 372 kts | 255° |
| 2026-04-30 20:36 | 40.89534 | 10.04701 | 33168 ft | 372 kts | 255° |
| 2026-04-30 20:37 | 40.86738 | 9.95099 | 33170 ft | 374 kts | 255° |
| 2026-04-30 20:37 | 40.84875 | 9.88722 | 33171 ft | 374 kts | 255° |
| 2026-04-30 20:37 | 40.83933 | 9.85502 | 32875 ft | 378 kts | 255° |
| 2026-04-30 20:38 | 40.82988 | 9.82276 | 32435 ft | 376 kts | 255° |
| 2026-04-30 20:38 | 40.82044 | 9.79061 | 31938 ft | 374 kts | 254° |
| 2026-04-30 20:38 | 40.81102 | 9.75855 | 31349 ft | 375 kts | 254° |
| 2026-04-30 20:39 | 40.79208 | 9.69413 | 30194 ft | 378 kts | 254° |
| 2026-04-30 20:39 | 40.78255 | 9.66178 | 29526 ft | 379 kts | 253° |
| 2026-04-30 20:39 | 40.77143 | 9.63031 | 29024 ft | 383 kts | 242° |
| 2026-04-30 20:40 | 40.73218 | 9.58202 | 28095 ft | 396 kts | 216° |
| 2026-04-30 20:40 | 40.70669 | 9.56746 | 27655 ft | 401 kts | 207° |
| 2026-04-30 20:40 | 40.68047 | 9.55505 | 27188 ft | 400 kts | 207° |
| 2026-04-30 20:41 | 40.62872 | 9.52977 | 26276 ft | 393 kts | 208° |
| 2026-04-30 20:41 | 40.60329 | 9.51684 | 25850 ft | 391 kts | 208° |
| 2026-04-30 20:41 | 40.57828 | 9.50402 | 25411 ft | 389 kts | 208° |
| 2026-04-30 20:41 | 40.55310 | 9.49111 | 24970 ft | 388 kts | 208° |
| 2026-04-30 20:42 | 40.52803 | 9.47828 | 24542 ft | 386 kts | 208° |
| 2026-04-30 20:42 | 40.50298 | 9.46550 | 24102 ft | 385 kts | 208° |
| 2026-04-30 20:42 | 40.45328 | 9.44021 | 23166 ft | 381 kts | 207° |
| 2026-04-30 20:43 | 40.42867 | 9.42771 | 22705 ft | 378 kts | 207° |
| 2026-04-30 20:43 | 40.40425 | 9.41532 | 22273 ft | 375 kts | 207° |
| 2026-04-30 20:43 | 40.37997 | 9.40300 | 21845 ft | 372 kts | 207° |
| 2026-04-30 20:44 | 40.33188 | 9.37875 | 21009 ft | 367 kts | 206° |
| 2026-04-30 20:44 | 40.30812 | 9.36678 | 20590 ft | 365 kts | 206° |
| 2026-04-30 20:44 | 40.26106 | 9.34311 | 19796 ft | 360 kts | 206° |
| 2026-04-30 20:45 | 40.21441 | 9.31964 | 18982 ft | 358 kts | 205° |
| 2026-04-30 20:45 | 40.19122 | 9.30799 | 18596 ft | 356 kts | 205° |
| 2026-04-30 20:45 | 40.16806 | 9.29636 | 18123 ft | 357 kts | 205° |
| 2026-04-30 20:46 | 40.09928 | 9.26189 | 16875 ft | 352 kts | 205° |
| 2026-04-30 20:46 | 40.07651 | 9.25050 | 16468 ft | 350 kts | 205° |
| 2026-04-30 20:47 | 40.03126 | 9.22787 | 15695 ft | 346 kts | 205° |
| 2026-04-30 20:47 | 40.00882 | 9.21667 | 15294 ft | 344 kts | 205° |
| 2026-04-30 20:48 | 39.96437 | 9.19449 | 14545 ft | 341 kts | 205° |
| 2026-04-30 20:48 | 39.94226 | 9.18346 | 14164 ft | 340 kts | 205° |
| 2026-04-30 20:48 | 39.92016 | 9.17244 | 13749 ft | 339 kts | 204° |
| 2026-04-30 20:48 | 39.89814 | 9.16148 | 13321 ft | 338 kts | 204° |
| 2026-04-30 20:49 | 39.87626 | 9.15060 | 12926 ft | 336 kts | 204° |
| 2026-04-30 20:49 | 39.85441 | 9.14001 | 12545 ft | 334 kts | 201° |
| 2026-04-30 20:49 | 39.83206 | 9.13166 | 12162 ft | 334 kts | 198° |
| 2026-04-30 20:50 | 39.78708 | 9.11739 | 11410 ft | 331 kts | 197° |
| 2026-04-30 20:50 | 39.76501 | 9.11036 | 11034 ft | 329 kts | 197° |
| 2026-04-30 20:50 | 39.74288 | 9.10317 | 10774 ft | 324 kts | 197° |
| 2026-04-30 20:50 | 39.72130 | 9.09607 | 10628 ft | 316 kts | 197° |
| 2026-04-30 20:51 | 39.70028 | 9.08909 | 10473 ft | 308 kts | 197° |
| 2026-04-30 20:51 | 39.65990 | 9.07567 | 10220 ft | 291 kts | 197° |
| 2026-04-30 20:51 | 39.64026 | 9.07017 | 9967 ft | 290 kts | 187° |
| 2026-04-30 20:52 | 39.61982 | 9.06999 | 9511 ft | 296 kts | 179° |
| 2026-04-30 20:52 | 39.59909 | 9.07115 | 9043 ft | 300 kts | 179° |
| 2026-04-30 20:52 | 39.55676 | 9.07272 | 8100 ft | 308 kts | 180° |
| 2026-04-30 20:53 | 39.53533 | 9.07123 | 7594 ft | 309 kts | 195° |
| 2026-04-30 20:53 | 39.51617 | 9.05950 | 7132 ft | 304 kts | 215° |
| 2026-04-30 20:53 | 39.49911 | 9.04361 | 6656 ft | 300 kts | 217° |
| 2026-04-30 20:54 | 39.46593 | 9.01146 | 5597 ft | 295 kts | 217° |
| 2026-04-30 20:54 | 39.44953 | 8.99578 | 5119 ft | 291 kts | 216° |
| 2026-04-30 20:54 | 39.43357 | 8.98067 | 4632 ft | 276 kts | 216° |
| 2026-04-30 20:55 | 39.40482 | 8.95360 | 4159 ft | 230 kts | 215° |
| 2026-04-30 20:55 | 39.39252 | 8.94204 | 3987 ft | 207 kts | 215° |
| 2026-04-30 20:55 | 39.38142 | 8.93162 | 3829 ft | 187 kts | 213° |
| 2026-04-30 20:56 | 39.35876 | 8.93049 | 2895 ft | 174 kts | 145° |
| 2026-04-30 20:56 | 39.34960 | 8.93997 | 2520 ft | 161 kts | 136° |
| 2026-04-30 20:56 | 39.33420 | 8.95790 | 2031 ft | 140 kts | 135° |
| 2026-04-30 20:57 | 39.32690 | 8.96644 | 1803 ft | 141 kts | 135° |
| 2026-04-30 20:57 | 39.31970 | 8.97490 | 1597 ft | 139 kts | 136° |
| 2026-04-30 20:57 | 39.31253 | 8.98329 | 1401 ft | 139 kts | 136° |
| 2026-04-30 20:58 | 39.29799 | 9.00024 | 1046 ft | 144 kts | 137° |
| 2026-04-30 20:58 | 39.29061 | 9.00878 | 923 ft | 140 kts | 137° |
| 2026-04-30 20:58 | 39.28352 | 9.01722 | 706 ft | 138 kts | 137° |
| 2026-04-30 20:58 | 39.27641 | 9.02545 | 495 ft | 137 kts | 137° |
| 2026-04-30 20:59 | 39.26226 | 9.04182 | 112 ft | 136 kts | 136° |
| 2026-04-30 20:59 | 39.25551 | 9.04957 | 16 ft | 119 kts | 137° |
| 2026-04-30 21:00 | 39.25038 | 9.05584 | 16 ft | 9 kts | 84° |
| 2026-04-30 21:00 | 39.25088 | 9.05693 | 15 ft | 0 kts | 60° |
| 2026-04-30 21:01 | 39.25090 | 9.05699 | 15 ft | 4 kts | 60° |
| 2026-04-30 21:01 | 39.25140 | 9.05813 | 16 ft | 7 kts | 61° |
| 2026-04-30 21:02 | 39.25150 | 9.05869 | 14 ft | 7 kts | 108° |
| 2026-04-30 21:02 | 39.25143 | 9.05925 | 14 ft | 6 kts | 69° |
| 2026-04-30 21:02 | 39.25168 | 9.05972 | 14 ft | 6 kts | 52° |
| 2026-04-30 21:02 | 39.25207 | 9.05978 | 14 ft | 6 kts | 326° |
| 2026-04-30 21:03 | 39.25231 | 9.05953 | 14 ft | 0 kts | 322° |